Latest Weather Observations for Bombala AWS

IDN60801

Issued at 9:02 am EST Monday 6 July 2015 (issued every 30 minutes, with the page automatically refreshed every 10 minutes)

About weather observations | Map of weather stations | Latest weather observations for NSW | Other Formats
Station Details ID: 070328 Name: BOMBALA AWS Lat: -37.00 Lon: 149.23 Height: 760.5 m
Data from the previous 72 hours. | See also: Recent months at Bombala AWS
Date/Time
EST
Temp
°C
App
Temp
°C
Dew
Point
Rel
Hum
%
Delta-T
°C
Wind Press
QNH
hPa
Press
MSL
hPa
Rain
since 9 am
mm
Dir
 
Spd
km/h
Gust
km/h
Spd
kts
Gust
kts
06/09:00am -0.7 -2.8 -0.8 99 0.0 CALM 0 0 0 0 1015.8 1017.0 0.0
06/08:30am -2.8 -5.2 -2.9 99 -0.1 CALM 0 0 0 0 1015.6 1016.8 0.0
06/08:00am -3.7 -6.2 -3.8 99 -0.1 CALM 0 0 0 0 1015.6 1016.8 0.0
06/07:30am -4.3 -6.8 -4.4 99 -0.1 CALM 0 0 0 0 1015.5 1016.7 0.0
06/07:00am -3.9 -6.4 -4.0 99 -0.1 CALM 0 0 0 0 1015.4 1016.6 0.0
06/06:30am -4.0 -6.5 -4.1 99 -0.1 CALM 0 0 0 0 1015.2 1016.5 0.0
06/06:00am -3.7 -6.2 -3.8 99 -0.1 CALM 0 0 0 0 1015.1 1016.4 0.0
06/05:30am -3.4 -5.8 -3.5 99 -0.1 CALM 0 0 0 0 1015.0 1016.2 0.0
06/05:00am -3.3 -5.7 -3.4 99 -0.1 CALM 0 0 0 0 1015.0 1016.2 0.0
06/04:30am -3.5 -6.0 -3.6 99 -0.1 CALM 0 0 0 0 1014.9 1016.1 0.0
06/04:00am -3.2 -5.6 -3.3 99 -0.1 CALM 0 0 0 0 1015.1 1016.4 0.0
06/03:30am -2.8 -5.2 -2.9 99 -0.1 CALM 0 0 0 0 1015.1 1016.4 0.0
06/03:00am -2.3 -4.6 -2.4 99 -0.1 CALM 0 0 0 0 1015.6 1016.8 0.0
06/02:30am -2.0 -4.3 -2.1 99 -0.1 CALM 0 0 0 0 1015.9 1017.1 0.0
06/02:00am -1.3 -3.5 -1.4 99 0.0 CALM 0 0 0 0 1016.1 1017.3 0.0
06/01:30am -0.5 -2.6 -0.6 99 0.0 CALM 0 0 0 0 1016.2 1017.5 0.0
06/01:00am 0.0 -2.0 -0.1 99 0.0 CALM 0 0 0 0 1016.4 1017.7 0.0
06/12:30am 0.0 -3.1 -0.1 99 0.0 NNW 6 7 3 4 1016.6 1017.9 0.0
06/12:00am -0.2 -3.9 -0.3 99 0.0 NNW 9 11 5 6 1016.6 1017.9 0.0
 
Date/Time
EST
Temp
°C
App
Temp
°C
Dew
Point
Rel
Hum
%
Delta-T
°C
Wind Press
QNH
hPa
Press
MSL
hPa
Rain
since 9 am
mm
Dir
 
Spd
km/h
Gust
km/h
Spd
kts
Gust
kts
05/11:30pm -0.9 -4.2 -1.0 99 0.0 NNW 6 6 3 3 1017.0 1018.2 0.0
05/11:00pm -0.3 -3.5 -0.4 99 0.0 ESE 6 6 3 3 1017.0 1018.2 0.0
05/10:30pm 0.1 -1.9 0.0 99 0.0 CALM 0 0 0 0 1017.1 1018.3 0.0
05/10:00pm 1.4 -0.4 1.3 99 0.0 CALM 0 0 0 0 1017.2 1018.4 0.0
05/09:30pm 1.8 0.1 1.7 99 0.0 CALM 0 0 0 0 1017.4 1018.7 0.0
05/09:00pm 3.3 1.5 3.2 99 0.0 ESE 2 4 1 2 1017.6 1018.9 0.0
05/08:30pm 4.1 2.8 4.0 99 0.0 CALM 0 0 0 0 1017.8 1019.1 0.0
05/08:00pm 4.7 2.7 4.6 99 0.0 ESE 4 4 2 2 1017.8 1019.1 0.0
05/07:30pm 4.1 2.8 4.0 99 0.0 CALM 0 2 0 1 1017.8 1019.1 0.0
05/07:00pm 5.6 4.6 5.5 99 0.0 CALM 0 0 0 0 1017.7 1019.0 0.0
05/06:30pm 5.4 4.3 5.1 98 0.1 CALM 0 2 0 1 1017.6 1018.9 0.0
05/06:00pm 6.1 3.9 6.0 99 0.0 SE 7 9 4 5 1017.5 1018.8 0.0
05/05:30pm 5.2 1.9 4.3 94 0.4 SSE 11 13 6 7 1017.2 1018.4 0.0
05/05:00pm 8.0 6.2 3.3 72 2.1 WNW 2 13 1 7 1017.1 1018.3 0.0
05/04:30pm 10.8 9.4 3.4 60 3.4 CALM 0 0 0 0 1017.0 1018.2 0.0
05/04:00pm 12.4 11.2 4.6 59 3.7 CALM 0 0 0 0 1017.1 1018.3 0.0
05/03:30pm 12.0 10.3 4.0 58 3.8 NW 2 6 1 3 1017.0 1018.2 0.0
05/03:00pm 11.5 9.4 3.8 59 3.6 NW 4 6 2 3 1017.0 1018.2 0.0
05/02:30pm 11.8 9.9 5.0 63 3.3 NW 4 6 2 3 1017.0 1018.2 0.0
05/02:00pm 11.8 9.9 4.8 62 3.3 NW 4 7 2 4 1017.3 1018.6 0.0
05/01:30pm 11.3 8.8 4.7 64 3.1 NW 7 11 4 6 1017.5 1018.8 0.0
05/01:00pm 11.1 8.1 4.1 62 3.3 NNW 9 13 5 7 1017.8 1019.1 0.0
05/12:30pm 10.6 8.1 4.5 66 2.9 NNW 7 11 4 6 1018.2 1019.4 0.0
05/12:00pm 9.4 6.6 5.0 74 2.1 NW 9 13 5 7 1018.8 1020.1 0.0
05/11:30am 8.8 6.3 4.8 76 1.9 NNW 7 11 4 6 1019.2 1020.5 0.0
05/11:00am 8.2 5.6 4.4 77 1.7 NW 7 9 4 5 1019.7 1021.0 0.0
05/10:30am 7.3 4.4 4.4 82 1.3 NW 9 13 5 7 1020.0 1021.3 0.0
05/10:00am 6.6 2.5 4.3 85 1.0 NW 15 17 8 9 1019.9 1021.2 0.0
05/09:30am 5.6 1.8 3.8 88 0.8 NW 13 19 7 10 1019.8 1021.1 0.0
05/09:00am 4.7 1.7 4.3 97 0.2 NNW 9 13 5 7 1019.9 1021.2 0.2
05/08:30am 3.6 1.4 3.5 99 0.0 N 4 6 2 3 1019.9 1021.2 0.2
05/08:00am 2.9 0.2 2.8 99 0.0 N 6 7 3 4 1019.7 1021.0 0.2
05/07:30am 3.2 1.3 3.1 99 0.0 NNW 2 6 1 3 1019.8 1021.1 0.2
05/07:00am 3.0 1.5 2.9 99 0.0 CALM 0 0 0 0 1019.8 1021.1 0.2
05/06:30am 3.5 -0.4 3.4 99 0.0 NW 13 15 7 8 1019.4 1020.7 0.2
05/06:00am 3.5 0.4 3.4 99 0.0 WNW 9 13 5 7 1019.4 1020.7 0.2
05/05:30am 2.9 0.6 2.8 99 0.0 NNW 4 6 2 3 1019.2 1020.5 0.2
05/05:00am 2.8 0.1 2.7 99 0.0 NW 6 9 3 5 1019.1 1020.4 0.2
05/04:30am 2.6 -0.1 2.5 99 0.0 NW 6 7 3 4 1019.2 1020.5 0.2
05/04:00am 3.1 1.6 3.0 99 0.0 CALM 0 0 0 0 1019.2 1020.5 0.2
05/03:30am 3.1 1.6 3.0 99 0.0 CALM 0 0 0 0 1019.3 1020.6 0.2
05/03:00am 3.5 2.0 3.2 98 0.1 CALM 0 0 0 0 1019.3 1020.6 0.2
05/02:30am 3.8 2.4 3.4 97 0.2 CALM 0 0 0 0 1019.4 1020.7 0.2
05/02:00am 3.8 2.3 3.2 96 0.3 CALM 0 0 0 0 1019.7 1021.0 0.2
05/01:30am 4.4 1.7 3.8 96 0.3 WNW 7 11 4 6 1019.8 1021.1 0.2
05/01:00am 4.1 1.6 3.7 97 0.2 WNW 6 11 3 6 1019.8 1021.1 0.2
05/12:30am 3.6 -0.7 3.5 99 0.0 NW 15 19 8 10 1020.0 1021.3 0.2
05/12:00am 2.6 -0.7 2.5 99 0.0 NNW 9 13 5 7 1020.1 1021.4 0.2
 
Date/Time
EST
Temp
°C
App
Temp
°C
Dew
Point
Rel
Hum
%
Delta-T
°C
Wind Press
QNH
hPa
Press
MSL
hPa
Rain
since 9 am
mm
Dir
 
Spd
km/h
Gust
km/h
Spd
kts
Gust
kts
04/11:30pm 3.3 0.7 3.2 99 0.0 N 6 9 3 5 1020.3 1021.6 0.2
04/11:00pm 3.3 0.1 3.2 99 0.0 N 9 11 5 6 1020.3 1021.6 0.2
04/10:30pm 3.0 -0.6 2.9 99 0.0 N 11 13 6 7 1020.4 1021.7 0.2
04/10:00pm 3.6 0.5 3.5 99 0.0 N 9 11 5 6 1020.4 1021.7 0.2
04/09:30pm 3.4 0.8 3.1 98 0.1 NNE 6 7 3 4 1020.3 1021.6 0.2
04/09:00pm 3.9 1.3 3.2 95 0.3 NNW 6 7 3 4 1020.3 1021.6 0.2
04/08:30pm 5.0 2.9 3.8 92 0.5 NNW 4 7 2 4 1020.2 1021.5 0.2
04/08:00pm 5.8 4.3 4.8 93 0.5 NNW 2 6 1 3 1020.2 1021.5 0.2
04/07:30pm 4.8 2.1 3.8 93 0.4 SSE 7 11 4 6 1020.3 1021.6 0.2
04/07:00pm 5.0 2.5 3.5 90 0.7 WNW 6 7 3 4 1020.2 1021.5 0.2
04/06:30pm 6.8 5.6 4.8 87 0.9 CALM 0 0 0 0 1020.1 1021.4 0.2
04/06:00pm 6.8 4.8 4.6 86 1.0 WSW 4 7 2 4 1019.9 1021.2 0.2
04/05:30pm 7.2 3.2 4.9 85 1.1 WSW 15 22 8 12 1019.4 1020.7 0.2
04/05:00pm 7.0 4.1 4.8 86 1.0 WSW 9 15 5 8 1019.2 1020.5 0.2
04/04:30pm 7.9 4.7 5.2 83 1.3 WSW 11 19 6 10 1019.3 1020.6 0.2
04/04:00pm 8.1 3.7 5.0 81 1.4 WSW 17 26 9 14 1019.2 1020.5 0.2
04/03:30pm 8.8 4.1 5.2 78 1.7 WSW 19 24 10 13 1019.0 1020.3 0.2
04/03:00pm 8.9 4.5 4.7 75 1.9 WSW 17 26 9 14 1018.8 1020.1 0.2
04/02:30pm 8.5 5.7 3.1 69 2.4 N 7 9 4 5 1018.9 1020.2 0.2
04/02:00pm 8.1 4.9 2.8 69 2.3 NNW 9 13 5 7 1018.9 1020.2 0.2
04/01:30pm 8.1 4.2 3.6 73 2.0 NNW 13 15 7 8 1018.9 1020.2 0.2
04/01:00pm 7.7 3.8 3.4 74 1.9 NNW 13 17 7 9 1019.1 1020.4 0.2
04/12:30pm 6.6 2.1 2.3 74 1.9 NW 15 19 8 10 1019.2 1020.5 0.2
04/12:00pm 7.5 3.1 2.6 71 2.1 WNW 15 20 8 11 1019.8 1021.1 0.2
04/11:30am 6.0 1.4 1.5 73 1.9 WNW 15 20 8 11 1020.3 1021.6 0.2
04/11:00am 4.7 0.8 3.2 90 0.6 NW 13 20 7 11 1021.0 1022.3 0.2
04/10:30am 2.3 -1.4 2.2 99 0.0 NW 11 13 6 7 1021.2 1022.5 0.2
04/10:00am 0.7 -4.0 0.6 99 0.0 NW 15 20 8 11 1021.1 1022.4 0.2
04/09:30am -1.0 -5.6 -1.1 99 0.0 NW 13 17 7 9 1021.1 1022.4 0.0
04/09:00am -2.7 -5.8 -2.8 99 -0.1 N 4 6 2 3 1021.1 1022.4 0.0
04/08:30am -3.5 -6.0 -3.6 99 -0.1 CALM 0 0 0 0 1021.2 1022.5 0.0
04/08:00am -3.9 -7.2 -4.0 99 -0.1 NNW 4 6 2 3 1021.0 1022.3 0.0
04/07:30am -4.2 -7.5 -4.3 99 -0.1 NNW 4 6 2 3 1021.1 1022.4 0.0
04/07:00am -4.2 -8.1 -4.3 99 -0.1 NNW 7 9 4 5 1021.1 1022.4 0.0
04/06:30am -4.6 -7.6 -4.7 99 -0.2 NNW 2 4 1 2 1020.8 1022.2 0.0
04/06:00am -4.6 -8.3 -4.7 99 -0.2 NNW 6 9 3 5 1020.7 1022.1 0.0
04/05:30am -4.7 -7.3 -4.8 99 -0.2 CALM 0 0 0 0 1020.4 1021.7 0.0
04/05:00am -4.2 -7.5 -4.3 99 -0.1 NW 4 6 2 3 1020.1 1021.4 0.0
04/04:30am -4.2 -6.7 -4.3 99 -0.1 CALM 0 0 0 0 1020.0 1021.3 0.0
04/04:00am -4.3 -6.8 -4.4 99 -0.1 CALM 0 0 0 0 1020.3 1021.6 0.0
04/03:30am -4.1 -7.0 -4.2 99 -0.1 NNW 2 4 1 2 1020.5 1021.8 0.0
04/03:00am -4.0 -7.3 -4.1 99 -0.1 NNW 4 6 2 3 1020.8 1022.2 0.0
04/02:30am -4.1 -7.0 -4.2 99 -0.1 NNE 2 6 1 3 1021.1 1022.4 0.0
04/02:00am -4.5 -7.1 -4.6 99 -0.2 CALM 0 0 0 0 1021.3 1022.6 0.0
04/01:30am -4.5 -7.4 -4.6 99 -0.2 NNE 2 6 1 3 1021.4 1022.7 0.0
04/01:00am -4.8 -7.4 -4.9 99 -0.2 CALM 0 0 0 0 1021.8 1023.2 0.0
04/12:30am -5.2 -8.6 -5.3 99 -0.2 N 4 6 2 3 1021.8 1023.2 0.0
04/12:00am -4.7 -7.3 -4.8 99 -0.2 CALM 0 0 0 0 1022.2 1023.6 0.0
 
Date/Time
EST
Temp
°C
App
Temp
°C
Dew
Point
Rel
Hum
%
Delta-T
°C
Wind Press
QNH
hPa
Press
MSL
hPa
Rain
since 9 am
mm
Dir
 
Spd
km/h
Gust
km/h
Spd
kts
Gust
kts
03/11:30pm -4.0 -7.3 -4.1 99 -0.1 SW 4 4 2 2 1022.7 1024.0 0.0
03/11:00pm -4.4 -7.0 -4.5 99 -0.1 CALM 0 0 0 0 1022.6 1023.9 0.0
03/10:30pm -3.4 -5.8 -3.5 99 -0.1 CALM 0 0 0 0 1022.9 1024.3 0.0
03/10:00pm -2.0 -4.7 -2.1 99 -0.1 SW 2 4 1 2 1023.3 1024.7 0.0
03/09:30pm -2.8 -5.2 -2.9 99 -0.1 CALM 0 0 0 0 1023.4 1024.8 0.0
03/09:00pm -1.5 -3.7 -1.6 99 0.0 CALM 0 0 0 0 1023.6 1025.0 0.0
03/08:30pm -2.5 -4.8 -2.6 99 -0.1 CALM 0 0 0 0 1023.7 1025.1 0.0
03/08:00pm -0.8 -4.1 -0.9 99 0.0 S 6 6 3 3 1023.9 1025.2 0.0
03/07:30pm -0.8 -4.1 -0.9 99 0.0 SSE 6 6 3 3 1023.6 1025.0 0.0
03/07:00pm 0.0 -2.8 -0.1 99 0.0 SSE 4 6 2 3 1023.6 1025.0 0.0
03/06:30pm 0.1 -2.7 -0.6 95 0.3 SSE 4 6 2 3 1023.5 1024.9 0.0
03/06:00pm 1.7 -0.3 -0.2 87 0.7 CALM 0 0 0 0 1023.4 1024.8 0.0
03/05:30pm 1.7 -0.4 -0.9 83 1.0 CALM 0 0 0 0 1023.4 1024.8 0.0
03/05:00pm 3.7 1.7 -0.1 76 1.5 CALM 0 0 0 0 1023.1 1024.5 0.0
03/04:30pm 4.7 1.6 0.3 73 1.8 W 6 6 3 3 1023.3 1024.7 0.0
03/04:00pm 5.6 2.5 0.0 67 2.2 WNW 6 7 3 4 1023.5 1024.9 0.0
03/03:30pm 5.9 2.4 1.1 71 2.0 WNW 9 13 5 7 1023.3 1024.7 0.0
03/03:00pm 6.0 2.1 1.0 70 2.1 NW 11 17 6 9 1023.2 1024.6 0.0
03/02:30pm 5.7 1.8 0.9 71 2.0 WNW 11 15 6 8 1023.2 1024.6 0.0
03/02:00pm 5.1 1.5 0.9 74 1.7 WSW 9 17 5 9 1023.4 1024.8 0.0
03/01:30pm 5.7 1.6 2.0 77 1.6 W 13 19 7 10 1023.6 1025.0 0.0
03/01:00pm 4.3 -0.1 0.6 77 1.5 W 13 17 7 9 1024.3 1025.7 0.0
03/12:30pm 4.5 0.6 1.4 80 1.3 W 11 17 6 9 1024.9 1026.3 0.0
03/12:00pm 4.3 0.5 1.5 82 1.1 WSW 11 15 6 8 1025.3 1026.7 0.0
03/11:30am 4.5 0.7 1.7 82 1.2 WSW 11 17 6 9 1025.6 1027.0 0.0
03/11:00am 4.9 1.4 3.4 90 0.6 W 11 17 6 9 1026.0 1027.4 0.0
03/10:30am 4.2 0.6 3.0 92 0.5 W 11 15 6 8 1026.0 1027.4 0.0
03/10:00am 3.7 -0.3 3.1 96 0.3 W 13 15 7 8 1026.1 1027.5 0.0
03/09:30am 3.2 -0.4 2.8 97 0.2 W 11 19 6 10 1026.2 1027.7 0.0

Other Formats:

Comma delimited format used in spreadsheet applications
http://www.bom.gov.au/fwo/IDN60801/IDN60801.94929.axf

JavaScript Object Notation format (JSON) in row-major order
http://www.bom.gov.au/fwo/IDN60801/IDN60801.94929.json